createdAt,value
2018-01-21T00:02:01.287Z,18.83
2018-01-21T00:04:28.991Z,17.13
2018-01-21T00:06:56.758Z,15.77
2018-01-21T00:09:24.468Z,16.97
2018-01-21T00:11:52.179Z,17.57
2018-01-21T00:14:19.931Z,17.63
2018-01-21T00:16:47.609Z,16.90
2018-01-21T00:19:15.327Z,16.57
2018-01-21T00:21:43.003Z,17.37
2018-01-21T00:24:10.703Z,16.13
2018-01-21T00:26:38.423Z,15.93
2018-01-21T00:29:06.120Z,16.97
2018-01-21T00:31:33.862Z,15.57
2018-01-21T00:34:01.529Z,17.27
2018-01-21T00:36:29.254Z,16.50
2018-01-21T00:38:56.937Z,16.83
2018-01-21T00:41:25.035Z,17.60
2018-01-21T00:43:52.698Z,20.03
2018-01-21T00:46:20.384Z,20.63
2018-01-21T00:48:48.082Z,21.37
2018-01-21T00:51:35.308Z,23.07
2018-01-21T00:54:02.967Z,21.60
2018-01-21T00:56:30.771Z,22.97
2018-01-21T00:58:58.472Z,22.13
2018-01-21T01:01:26.164Z,22.87
2018-01-21T01:03:53.832Z,23.47
2018-01-21T01:06:21.519Z,23.23
2018-01-21T01:08:49.209Z,22.63
2018-01-21T01:11:16.920Z,21.90
2018-01-21T01:13:44.634Z,21.77
2018-01-21T01:16:12.289Z,21.30
2018-01-21T01:18:39.969Z,22.93
2018-01-21T01:21:09.845Z,21.90
2018-01-21T01:23:37.539Z,23.10
2018-01-21T01:26:05.273Z,21.33
2018-01-21T01:28:33.698Z,19.90
2018-01-21T01:31:01.365Z,19.73
2018-01-21T01:33:28.992Z,20.77
2018-01-21T01:35:57.598Z,21.00
2018-01-21T01:38:25.283Z,20.33
2018-01-21T01:40:52.995Z,20.63
2018-01-21T01:43:20.672Z,19.90
2018-01-21T01:45:48.477Z,19.53
2018-01-21T01:48:16.462Z,19.23
2018-01-21T01:50:44.231Z,18.67
2018-01-21T01:53:11.888Z,18.67
2018-01-21T01:55:39.662Z,18.00
2018-01-21T01:58:07.408Z,17.87
2018-01-21T02:00:35.057Z,18.60
2018-01-21T02:03:02.745Z,19.20
2018-01-21T02:05:30.706Z,19.20
2018-01-21T02:07:58.448Z,18.20
2018-01-21T02:10:26.497Z,19.37
2018-01-21T02:12:59.797Z,17.03
2018-01-21T02:15:27.782Z,17.70
2018-01-21T02:17:55.510Z,16.63
2018-01-21T02:20:29.106Z,18.00
2018-01-21T02:22:56.774Z,16.90
2018-01-21T02:25:25.227Z,16.13
2018-01-21T02:27:52.945Z,16.17
2018-01-21T02:30:21.033Z,15.50
2018-01-21T02:32:48.744Z,15.40
2018-01-21T02:35:16.445Z,14.83
2018-01-21T02:37:44.118Z,14.93
2018-01-21T02:40:11.803Z,14.53
2018-01-21T02:42:39.526Z,16.20
2018-01-21T02:45:07.252Z,14.63
2018-01-21T02:47:34.961Z,14.30
2018-01-21T02:50:04.729Z,13.60
2018-01-21T02:52:32.422Z,13.73
2018-01-21T02:55:00.884Z,12.40
2018-01-21T02:57:28.571Z,12.87
2018-01-21T02:59:57.010Z,13.50
2018-01-21T03:02:24.601Z,14.93
2018-01-21T03:04:52.251Z,14.87
2018-01-21T03:07:19.916Z,15.90
2018-01-21T03:09:47.588Z,15.40
2018-01-21T03:12:16.079Z,15.03
2018-01-21T03:14:44.535Z,13.53
2018-01-21T03:17:12.243Z,12.70
2018-01-21T03:19:40.082Z,13.43
2018-01-21T03:22:07.821Z,13.40
2018-01-21T03:24:36.293Z,13.07
2018-01-21T03:27:04.001Z,12.97
2018-01-21T03:29:31.709Z,12.70
2018-01-21T03:31:59.288Z,12.43
2018-01-21T03:34:26.894Z,11.47
2018-01-21T03:36:55.358Z,11.17
2018-01-21T03:39:23.021Z,10.10
2018-01-21T03:41:50.703Z,10.93
2018-01-21T03:44:18.375Z,11.47
2018-01-21T03:46:46.096Z,11.90
2018-01-21T03:49:13.765Z,12.33
2018-01-21T03:51:41.488Z,12.87
2018-01-21T03:54:09.240Z,13.07
2018-01-21T03:56:36.993Z,13.17
2018-01-21T03:59:05.663Z,13.80
2018-01-21T04:01:35.653Z,14.93
2018-01-21T04:04:03.372Z,14.73
2018-01-21T04:06:31.082Z,15.90
2018-01-21T04:08:58.774Z,15.63
2018-01-21T04:11:27.286Z,17.20
2018-01-21T04:13:54.932Z,16.37
2018-01-21T04:16:22.626Z,17.77
2018-01-21T04:18:50.358Z,18.30
2018-01-21T04:21:18.803Z,18.50
2018-01-21T04:23:46.508Z,19.57
2018-01-21T04:26:14.936Z,20.50
2018-01-21T04:28:42.624Z,19.60
2018-01-21T04:31:10.467Z,20.83
2018-01-21T04:33:38.177Z,22.67
2018-01-21T04:36:06.589Z,24.27
2018-01-21T04:38:34.254Z,22.50
2018-01-21T04:41:01.912Z,22.60
2018-01-21T04:43:29.633Z,23.47
2018-01-21T04:45:57.307Z,22.93
2018-01-21T04:48:25.922Z,23.77
2018-01-21T04:50:53.653Z,22.67
2018-01-21T04:53:21.340Z,22.73
2018-01-21T04:55:49.126Z,23.57
2018-01-21T04:58:17.112Z,23.63
2018-01-21T05:00:44.802Z,23.63
2018-01-21T05:03:13.042Z,23.00
2018-01-21T05:05:40.702Z,23.10
2018-01-21T05:08:08.372Z,22.33
2018-01-21T05:10:36.061Z,23.80
2018-01-21T05:13:03.778Z,21.87
2018-01-21T05:15:31.782Z,20.50
2018-01-21T05:17:59.451Z,19.87
2018-01-21T05:20:27.144Z,20.00
2018-01-21T05:22:54.847Z,19.30
2018-01-21T05:25:22.578Z,16.53
2018-01-21T05:27:50.309Z,15.93
2018-01-21T05:30:18.089Z,15.40
2018-01-21T05:32:45.737Z,16.90
2018-01-21T05:35:13.420Z,16.67
2018-01-21T05:37:41.113Z,17.10
2018-01-21T05:40:08.818Z,18.23
2018-01-21T05:42:36.538Z,17.93
2018-01-21T05:45:04.994Z,17.70
2018-01-21T05:47:32.671Z,17.17
2018-01-21T05:50:01.138Z,17.83
2018-01-21T05:52:28.835Z,18.87
2018-01-21T05:54:57.333Z,18.87
2018-01-21T05:57:24.981Z,18.03
2018-01-21T05:59:52.815Z,18.77
2018-01-21T06:02:20.501Z,19.20
2018-01-21T06:04:48.952Z,19.80
2018-01-21T06:07:16.662Z,17.77
2018-01-21T06:09:44.359Z,17.37
2018-01-21T06:12:12.038Z,18.03
2018-01-21T06:14:39.754Z,18.20
2018-01-21T06:17:07.450Z,18.73
2018-01-21T06:19:35.166Z,19.13
2018-01-21T06:22:03.636Z,18.93
2018-01-21T06:24:31.277Z,19.50
2018-01-21T06:26:58.959Z,20.23
2018-01-21T06:29:35.114Z,19.53
2018-01-21T06:32:02.842Z,19.80
2018-01-21T06:34:30.551Z,20.93
2018-01-21T06:36:58.225Z,19.70
2018-01-21T06:39:25.920Z,22.10
2018-01-21T06:41:53.568Z,20.73
2018-01-21T06:44:21.223Z,22.13
2018-01-21T06:46:48.925Z,22.90
2018-01-21T06:49:16.609Z,22.23
2018-01-21T06:51:44.246Z,21.47
2018-01-21T06:54:11.885Z,21.83
2018-01-21T06:56:39.585Z,23.53
2018-01-21T06:59:07.272Z,20.13
2018-01-21T07:01:34.958Z,20.23
2018-01-21T07:04:02.680Z,22.90
2018-01-21T07:06:30.378Z,22.83
2018-01-21T07:08:58.843Z,22.60
2018-01-21T07:11:26.505Z,20.10
2018-01-21T07:13:54.176Z,16.30
2018-01-21T07:16:21.958Z,22.83
2018-01-21T07:18:49.642Z,20.20
2018-01-21T07:21:18.308Z,19.77
2018-01-21T07:23:46.007Z,18.30
2018-01-21T07:26:13.676Z,17.07
2018-01-21T07:28:41.357Z,15.40
2018-01-21T07:31:09.047Z,15.73
2018-01-21T07:33:36.734Z,12.00
2018-01-21T07:36:05.209Z,14.97
2018-01-21T07:38:32.859Z,12.77
2018-01-21T07:41:00.540Z,12.87
2018-01-21T07:43:28.240Z,12.37
2018-01-21T07:48:29.980Z,12.00
2018-01-21T07:50:57.666Z,12.27
2018-01-21T07:53:25.346Z,12.57
2018-01-21T07:55:53.039Z,12.53
2018-01-21T07:58:20.744Z,14.20
2018-01-21T08:00:48.396Z,12.77
2018-01-21T08:03:16.060Z,14.03
2018-01-21T08:05:44.485Z,14.23
2018-01-21T08:08:12.530Z,14.33
2018-01-21T08:10:40.294Z,14.37
2018-01-21T08:13:07.963Z,14.43
2018-01-21T08:15:35.693Z,14.63
2018-01-21T08:18:03.410Z,13.10
2018-01-21T08:20:31.126Z,14.27
2018-01-21T08:22:59.562Z,13.07
2018-01-21T08:25:27.263Z,12.60
2018-01-21T08:27:54.966Z,11.73
2018-01-21T08:30:22.657Z,12.70
2018-01-21T08:32:50.366Z,11.67
2018-01-21T08:35:24.369Z,12.03
2018-01-21T08:37:57.621Z,12.33
2018-01-21T08:40:31.342Z,13.77
2018-01-21T08:42:59.119Z,16.13
2018-01-21T08:45:27.227Z,16.97
2018-01-21T08:47:55.702Z,16.63
2018-01-21T08:50:24.562Z,14.33
2018-01-21T08:52:52.249Z,15.43
2018-01-21T08:55:20.722Z,17.40
2018-01-21T08:57:48.426Z,14.77
2018-01-21T09:00:16.131Z,15.83
2018-01-21T09:02:49.642Z,14.00
2018-01-21T09:05:17.380Z,14.00
2018-01-21T09:07:45.021Z,13.10
2018-01-21T09:10:12.798Z,14.73
2018-01-21T09:12:40.707Z,15.87
2018-01-21T09:15:08.435Z,17.10
2018-01-21T09:17:36.188Z,17.20
2018-01-21T09:20:03.922Z,17.87
2018-01-21T09:22:31.614Z,17.70
2018-01-21T09:24:59.314Z,19.07
2018-01-21T09:27:27.183Z,18.77
2018-01-21T09:29:54.822Z,18.73
2018-01-21T09:32:23.246Z,19.27
2018-01-21T09:34:51.814Z,19.27
2018-01-21T09:37:19.512Z,18.47
2018-01-21T09:39:51.330Z,19.07
2018-01-21T09:42:19.006Z,21.93
2018-01-21T09:44:46.687Z,20.63
2018-01-21T09:47:20.341Z,21.33
2018-01-21T09:49:48.068Z,19.60
2018-01-21T09:52:16.523Z,20.97
2018-01-21T09:54:44.179Z,23.10
2018-01-21T09:57:11.931Z,23.70
2018-01-21T09:59:39.580Z,23.23
2018-01-21T10:02:07.232Z,20.33
2018-01-21T10:04:34.955Z,19.17
2018-01-21T10:07:02.637Z,16.03
2018-01-21T10:09:30.570Z,15.83
2018-01-21T10:11:58.281Z,16.50
2018-01-21T10:14:25.982Z,13.93
2018-01-21T10:16:53.859Z,13.37
2018-01-21T10:19:21.472Z,13.50
2018-01-21T10:21:49.143Z,13.40
2018-01-21T10:24:16.849Z,14.27
2018-01-21T10:26:44.517Z,13.30
2018-01-21T10:29:12.182Z,12.80
2018-01-21T10:31:41.087Z,11.90
2018-01-21T10:34:08.762Z,11.10
2018-01-21T10:36:37.277Z,11.53
2018-01-21T10:39:05.050Z,11.40
2018-01-21T10:41:32.731Z,12.33
2018-01-21T10:44:00.396Z,12.00
2018-01-21T10:46:28.098Z,11.50
2018-01-21T10:48:55.798Z,12.23
2018-01-21T10:51:23.512Z,12.03
2018-01-21T10:53:51.159Z,12.33
2018-01-21T10:56:18.890Z,13.30
2018-01-21T10:58:46.619Z,12.07
2018-01-21T11:01:22.836Z,12.03
2018-01-21T11:03:50.567Z,12.30
2018-01-21T11:06:18.999Z,13.30
2018-01-21T11:08:46.690Z,13.30
2018-01-21T11:11:14.411Z,14.47
2018-01-21T11:13:42.128Z,13.70
2018-01-21T11:16:09.818Z,13.93
2018-01-21T11:18:37.499Z,14.13
2018-01-21T11:21:05.170Z,13.43
2018-01-21T11:23:32.825Z,12.90
2018-01-21T11:26:00.551Z,11.60
2018-01-21T11:28:28.280Z,11.60
2018-01-21T11:30:56.309Z,11.23
2018-01-21T11:33:24.014Z,11.07
2018-01-21T11:35:51.642Z,11.50
2018-01-21T11:38:19.340Z,12.07
2018-01-21T11:40:47.033Z,12.90
2018-01-21T11:43:15.504Z,12.20
2018-01-21T11:45:43.224Z,13.43
2018-01-21T11:48:10.934Z,13.90
2018-01-21T11:50:38.596Z,14.00
2018-01-21T11:53:06.287Z,13.30
2018-01-21T11:55:33.966Z,12.57
2018-01-21T11:58:01.639Z,12.60
2018-01-21T12:00:30.443Z,12.10
2018-01-21T12:02:58.192Z,12.00
2018-01-21T12:05:25.927Z,11.87
2018-01-21T12:07:54.328Z,10.93
2018-01-21T12:10:22.065Z,10.70
2018-01-21T12:12:50.638Z,10.73
2018-01-21T12:15:18.313Z,9.43
2018-01-21T12:17:46.058Z,9.27
2018-01-21T12:20:13.747Z,11.77
2018-01-21T12:22:42.231Z,12.73
2018-01-21T12:25:09.876Z,11.37
2018-01-21T12:27:37.546Z,13.67
2018-01-21T12:30:11.587Z,12.90
2018-01-21T12:32:39.211Z,12.10
2018-01-21T12:35:06.874Z,11.60
2018-01-21T12:37:34.458Z,13.33
2018-01-21T12:40:02.202Z,13.10
2018-01-21T12:42:29.878Z,11.30
2018-01-21T12:44:58.516Z,10.93
2018-01-21T12:47:26.209Z,12.10
2018-01-21T12:49:53.880Z,12.57
2018-01-21T12:52:21.600Z,13.10
2018-01-21T12:54:49.359Z,12.13
2018-01-21T12:57:17.332Z,13.77
2018-01-21T12:59:52.120Z,13.77
2018-01-21T13:02:20.607Z,13.23
2018-01-21T13:04:48.250Z,12.90
2018-01-21T13:07:15.925Z,13.93
2018-01-21T13:09:43.585Z,12.90
2018-01-21T13:12:11.249Z,13.50
2018-01-21T13:14:39.733Z,13.10
2018-01-21T13:17:08.146Z,10.57
2018-01-21T13:19:35.820Z,10.30
2018-01-21T13:22:03.532Z,8.63
2018-01-21T13:24:31.200Z,8.40
2018-01-21T13:26:58.835Z,8.37
2018-01-21T13:29:26.550Z,9.13
2018-01-21T13:31:54.254Z,8.77
2018-01-21T13:34:21.864Z,9.73
2018-01-21T13:36:49.538Z,9.57
2018-01-21T13:39:17.232Z,9.43
2018-01-21T13:41:44.927Z,10.37
2018-01-21T13:44:12.609Z,10.43
2018-01-21T13:46:41.138Z,10.20
2018-01-21T13:49:08.772Z,9.53
2018-01-21T13:51:39.429Z,10.07
2018-01-21T13:54:07.145Z,9.23
2018-01-21T13:56:34.822Z,9.43
2018-01-21T13:59:02.526Z,9.33
2018-01-21T14:01:30.224Z,8.30
2018-01-21T14:03:57.908Z,8.50
2018-01-21T14:06:25.627Z,9.20
2018-01-21T14:08:53.320Z,7.53
2018-01-21T14:11:20.955Z,7.30
2018-01-21T14:13:48.655Z,6.30
2018-01-21T14:16:16.290Z,7.00
2018-01-21T14:18:44.343Z,6.87
2018-01-21T14:21:12.959Z,6.63
2018-01-21T14:23:40.665Z,7.90
2018-01-21T14:26:08.354Z,7.77
2018-01-21T14:28:36.048Z,6.87
2018-01-21T14:31:03.728Z,7.23
2018-01-21T14:33:31.388Z,7.17
2018-01-21T14:35:59.103Z,7.90
2018-01-21T14:38:26.768Z,7.43
2018-01-21T14:40:54.427Z,6.77
2018-01-21T14:43:22.110Z,7.07
2018-01-21T14:45:49.808Z,7.00
2018-01-21T14:48:17.521Z,5.90
2018-01-21T14:50:48.244Z,6.00
2018-01-21T14:53:15.972Z,5.60
2018-01-21T14:55:43.578Z,4.67
2018-01-21T14:58:11.261Z,5.10
2018-01-21T15:00:39.747Z,4.60
2018-01-21T15:03:07.414Z,4.70
2018-01-21T15:05:35.104Z,4.33
2018-01-21T15:08:02.823Z,4.00
2018-01-21T15:10:30.515Z,3.83
2018-01-21T15:12:58.202Z,4.23
2018-01-21T15:15:25.919Z,4.57
2018-01-21T15:17:53.612Z,4.67
2018-01-21T15:20:22.252Z,4.47
2018-01-21T15:22:49.920Z,4.60
2018-01-21T15:25:17.579Z,4.50
2018-01-21T15:27:45.272Z,4.27
2018-01-21T15:30:12.953Z,4.33
2018-01-21T15:32:40.679Z,4.70
2018-01-21T15:35:08.323Z,4.90
2018-01-21T15:37:36.020Z,4.53
2018-01-21T15:40:03.743Z,4.93
2018-01-21T15:42:31.404Z,5.33
2018-01-21T15:44:59.840Z,5.13
2018-01-21T15:47:27.531Z,5.03
2018-01-21T15:49:58.371Z,4.30
2018-01-21T15:52:26.047Z,4.93
2018-01-21T15:54:53.712Z,4.40
2018-01-21T15:57:21.371Z,4.20
2018-01-21T15:59:49.811Z,5.00
2018-01-21T16:02:17.488Z,4.97
2018-01-21T16:04:45.138Z,4.77
2018-01-21T16:07:12.755Z,5.17
2018-01-21T16:09:41.246Z,4.70
2018-01-21T16:12:08.977Z,4.37
2018-01-21T16:14:36.577Z,4.60
2018-01-21T16:17:04.220Z,5.60
2018-01-21T16:19:36.795Z,5.40
2018-01-21T16:22:05.260Z,5.50
2018-01-21T16:24:32.964Z,7.00
2018-01-21T16:27:00.662Z,7.47
2018-01-21T16:29:28.385Z,7.03
2018-01-21T16:31:56.088Z,8.40
2018-01-21T16:34:23.763Z,12.23
2018-01-21T16:36:51.491Z,12.37
2018-01-21T16:39:19.198Z,12.63
2018-01-21T16:41:46.840Z,9.93
2018-01-21T16:44:14.556Z,9.43
2018-01-21T16:46:42.250Z,8.77
2018-01-21T16:49:09.944Z,8.80
2018-01-21T16:51:37.613Z,8.63
2018-01-21T16:54:05.292Z,8.77
2018-01-21T16:56:32.969Z,8.87
2018-01-21T16:59:01.454Z,9.77
2018-01-21T17:01:29.113Z,9.50
2018-01-21T17:03:57.574Z,10.53
2018-01-21T17:06:25.242Z,11.00
2018-01-21T17:08:52.957Z,9.90
2018-01-21T17:11:21.765Z,9.70
2018-01-21T17:13:49.470Z,11.03
2018-01-21T17:16:17.170Z,10.27
2018-01-21T17:18:44.845Z,9.80
2018-01-21T17:21:12.547Z,10.03
2018-01-21T17:23:40.212Z,9.90
2018-01-21T17:26:07.897Z,10.03
2018-01-21T17:28:35.544Z,9.33
2018-01-21T17:31:03.230Z,9.97
2018-01-21T17:33:31.715Z,9.67
2018-01-21T17:35:59.411Z,9.17
2018-01-21T17:38:27.107Z,8.50
2018-01-21T17:40:58.327Z,9.00
2018-01-21T17:43:26.015Z,8.83
2018-01-21T17:45:53.719Z,8.53
2018-01-21T17:48:21.393Z,10.27
2018-01-21T17:50:49.073Z,10.43
2018-01-21T17:53:16.770Z,11.40
2018-01-21T17:55:44.445Z,11.43
2018-01-21T17:58:12.107Z,10.33
2018-01-21T18:00:39.805Z,12.37
2018-01-21T18:03:07.458Z,13.60
2018-01-21T18:05:35.141Z,13.87
2018-01-21T18:08:02.853Z,12.23
2018-01-21T18:10:31.546Z,13.57
2018-01-21T18:12:59.233Z,14.10
2018-01-21T18:15:27.569Z,14.47
2018-01-21T18:17:55.266Z,14.17
2018-01-21T18:20:22.980Z,13.90
2018-01-21T18:22:50.641Z,14.20
2018-01-21T18:25:18.281Z,15.23
2018-01-21T18:27:45.976Z,15.13
2018-01-21T18:30:13.687Z,14.77
2018-01-21T18:32:42.121Z,15.67
2018-01-21T18:35:09.779Z,17.20
2018-01-21T18:37:37.445Z,17.50
2018-01-21T18:40:06.061Z,16.47
2018-01-21T18:42:33.776Z,17.33
2018-01-21T18:45:01.448Z,18.23
2018-01-21T18:47:29.122Z,18.27
2018-01-21T18:49:56.823Z,18.93
2018-01-21T18:52:24.523Z,18.03
2018-01-21T18:54:52.237Z,18.80
2018-01-21T18:57:19.913Z,19.17
2018-01-21T18:59:47.621Z,18.87
2018-01-21T19:02:15.355Z,19.80
2018-01-21T19:04:43.835Z,19.17
2018-01-21T19:07:12.278Z,21.07
2018-01-21T19:09:43.650Z,18.70
2018-01-21T19:12:11.275Z,21.03
2018-01-21T19:14:39.052Z,20.93
2018-01-21T19:17:06.748Z,21.40
2018-01-21T19:19:34.402Z,21.13
2018-01-21T19:22:02.107Z,20.30
2018-01-21T19:24:29.831Z,24.77
2018-01-21T19:26:57.923Z,23.43
2018-01-21T19:29:25.644Z,23.10
2018-01-21T19:31:53.362Z,23.53
2018-01-21T19:34:20.950Z,24.73
2018-01-21T19:36:48.629Z,21.77
2018-01-21T19:39:18.238Z,23.27
2018-01-21T19:41:46.482Z,23.17
2018-01-21T19:47:10.044Z,22.87
2018-01-21T19:49:37.738Z,24.13
2018-01-21T19:52:05.463Z,23.30
2018-01-21T19:54:33.178Z,23.90
2018-01-21T19:57:00.881Z,24.73
2018-01-21T19:59:28.575Z,25.13
2018-01-21T20:01:56.238Z,23.87
2018-01-21T20:04:24.682Z,23.87
2018-01-21T20:06:52.404Z,25.70
2018-01-21T20:09:20.103Z,23.77
2018-01-21T20:11:47.949Z,24.23
2018-01-21T20:14:15.669Z,23.20
2018-01-21T20:16:43.360Z,25.03
2018-01-21T20:19:11.059Z,24.73
2018-01-21T20:21:38.845Z,26.67
2018-01-21T20:24:06.517Z,24.07
2018-01-21T20:26:34.262Z,23.37
2018-01-21T20:29:01.920Z,24.60
2018-01-21T20:31:29.600Z,25.00
2018-01-21T20:33:57.300Z,24.90
2018-01-21T20:36:24.970Z,26.23
2018-01-21T20:38:52.654Z,27.80
2018-01-21T20:41:23.409Z,27.00
2018-01-21T20:43:51.111Z,25.87
2018-01-21T20:46:18.840Z,27.23
2018-01-21T20:48:46.521Z,28.00
2018-01-21T20:54:22.531Z,27.10
2018-01-21T20:56:50.186Z,25.47
2018-01-21T20:59:17.853Z,25.13
2018-01-21T21:01:46.339Z,26.43
2018-01-21T21:04:14.015Z,28.17
2018-01-21T21:06:41.726Z,27.83
2018-01-21T21:09:09.394Z,28.87
2018-01-21T21:11:37.081Z,28.43
2018-01-21T21:14:05.535Z,27.57
2018-01-21T21:16:33.246Z,28.23
2018-01-21T21:19:00.957Z,27.83
2018-01-21T21:21:32.617Z,27.40
2018-01-21T21:24:00.307Z,26.70
2018-01-21T21:26:33.160Z,26.10
2018-01-21T21:29:05.296Z,27.27
2018-01-21T21:31:39.060Z,27.93
2018-01-21T21:34:07.055Z,27.23
2018-01-21T21:36:34.744Z,27.03
2018-01-21T21:39:02.387Z,25.77
2018-01-21T21:41:30.967Z,26.33
2018-01-21T21:43:58.651Z,24.70
2018-01-21T21:46:26.341Z,26.57
2018-01-21T21:48:53.925Z,27.40
2018-01-21T21:51:21.595Z,26.20
2018-01-21T21:53:49.306Z,26.00
2018-01-21T21:56:16.894Z,26.43
2018-01-21T21:58:44.600Z,27.07
2018-01-21T22:01:13.202Z,27.10
2018-01-21T22:03:40.846Z,25.90
2018-01-21T22:06:08.489Z,25.50
2018-01-21T22:08:36.173Z,24.87
2018-01-21T22:11:04.650Z,25.13
2018-01-21T22:13:32.330Z,20.07
2018-01-21T22:16:00.782Z,24.37
2018-01-21T22:18:28.474Z,21.27
2018-01-21T22:20:56.916Z,22.60
2018-01-21T22:23:24.626Z,22.53
2018-01-21T22:25:52.334Z,22.07
2018-01-21T22:28:20.028Z,23.67
2018-01-21T22:30:51.213Z,22.50
2018-01-21T22:33:18.918Z,21.97
2018-01-21T22:35:46.612Z,20.73
2018-01-21T22:38:14.314Z,22.57
2018-01-21T22:40:42.001Z,21.67
2018-01-21T22:43:09.697Z,22.83
2018-01-21T22:45:37.380Z,21.97
2018-01-21T22:48:05.117Z,22.90
2018-01-21T22:50:33.138Z,22.73
2018-01-21T22:53:00.851Z,21.70
2018-01-21T22:55:28.563Z,22.73
2018-01-21T22:57:56.259Z,23.57
2018-01-21T23:00:27.423Z,23.50
2018-01-21T23:02:55.121Z,23.40
2018-01-21T23:05:22.807Z,23.40
2018-01-21T23:07:50.496Z,24.03
2018-01-21T23:10:18.182Z,24.17
2018-01-21T23:12:45.821Z,24.00
2018-01-21T23:15:13.521Z,23.87
2018-01-21T23:17:42.018Z,23.27
2018-01-21T23:20:10.446Z,23.97
2018-01-21T23:22:38.140Z,23.47
2018-01-21T23:25:05.778Z,23.53
2018-01-21T23:27:33.587Z,23.23
2018-01-21T23:30:05.161Z,23.03
2018-01-21T23:32:32.800Z,24.30
2018-01-21T23:35:01.218Z,22.60
2018-01-21T23:37:28.897Z,23.40
2018-01-21T23:39:56.597Z,23.40
2018-01-21T23:42:24.277Z,22.43
2018-01-21T23:44:51.942Z,21.93
2018-01-21T23:47:20.361Z,22.87
2018-01-21T23:49:48.026Z,22.00
2018-01-21T23:52:15.701Z,21.60
2018-01-21T23:54:43.381Z,22.43
2018-01-21T23:57:11.112Z,22.23
2018-01-21T23:59:42.145Z,21.57
